CDT,Max TemperatureF,Mean TemperatureF,Min TemperatureF,Max Dew PointF,MeanDew PointF,Min DewpointF,Max Humidity, Mean Humidity, Min Humidity, Max Sea Level PressureIn, Mean Sea Level PressureIn, Min Sea Level PressureIn, Max VisibilityMiles, Mean VisibilityMiles, Min VisibilityMiles, Max Wind SpeedMPH, Mean Wind SpeedMPH, Max Gust SpeedMPH,PrecipitationIn, CloudCover, Events, WindDirDegrees
2012-10-1,69,58,46,46,38,30,72,44,30,30.09,30.05,30.02,10,10,10,28,17,30,0.00,1,,324
2012-10-2,75,54,33,37,28,25,81,40,15,30.03,29.91,29.80,10,10,10,17,7,24,0.00,0,,173
2012-10-3,84,65,46,39,34,27,62,37,19,30.00,29.79,29.65,10,10,5,30,12,38,0.00,0,,136
2012-10-4,51,44,37,39,30,25,75,57,41,30.33,30.22,30.01,10,10,10,33,22,40,0.00,5,,300
2012-10-5,51,40,30,27,22,16,80,54,28,30.35,30.30,30.25,10,10,10,23,10,30,0.00,0,,301
2012-10-6,46,36,26,27,20,14,80,56,34,30.39,30.33,30.29,10,10,8,20,10,24,0.00,2,,299
2012-10-7,60,40,21,30,19,10,100,47,16,30.28,30.08,29.89,10,10,10,17,5,23,0.00,0,,225
2012-10-8,71,58,44,45,31,21,67,40,21,29.88,29.79,29.71,10,10,8,22,13,30,0.00,1,,249
2012-10-9,55,44,33,46,32,23,87,58,30,30.13,29.97,29.82,10,10,6,30,13,37,0.04,3,,299
2012-10-10,66,47,28,32,28,21,86,47,26,30.17,30.06,29.91,10,10,10,17,9,25,0.00,0,,212
2012-10-11,55,44,33,34,28,21,66,47,35,30.40,30.14,29.89,10,10,10,20,14,25,0.00,0,,352
2012-10-12,55,40,26,37,23,14,74,52,20,30.41,30.22,29.93,10,10,10,23,9,29,0.00,3,,126
2012-10-13,73,62,50,52,45,39,82,62,35,29.93,29.72,29.63,10,10,10,14,9,17,0.00,4,,170
2012-10-14,64,53,42,43,35,30,76,52,32,29.97,29.90,29.73,10,10,10,24,14,31,0.00,0,,311
2012-10-15,77,56,35,43,35,30,87,51,22,29.97,29.84,29.66,10,10,10,15,5,20,0.00,0,,136
2012-10-16,73,63,53,46,43,37,67,46,33,29.65,29.50,29.31,10,10,10,21,10,26,0.00,0,,235
2012-10-17,66,57,48,48,33,16,63,42,21,29.52,29.42,29.22,10,10,2,39,23,51,0.00,3,,278
2012-10-18,51,46,42,41,34,19,93,69,28,29.64,29.50,29.41,10,8,2,46,34,58,0.14,6,,293
2012-10-19,44,40,35,39,38,34,93,83,71,29.81,29.76,29.63,10,10,5,37,24,51,0.00,6,,312
2012-10-20,64,47,30,43,38,30,100,75,42,29.79,29.72,29.64,10,8,0,18,5,22,0.00,0,,123
2012-10-21,66,54,42,45,41,37,87,64,40,29.90,29.74,29.63,10,10,10,18,11,26,0.00,0,,25
2012-10-22,60,52,44,52,47,43,93,82,63,29.92,29.86,29.78,10,8,5,14,8,,0.00,5,,358
2012-10-23,60,53,46,54,51,45,100,87,72,29.80,29.72,29.66,10,7,2,12,4,16,0.00,3,,219
2012-10-24,53,47,41,48,42,32,100,79,47,29.90,29.85,29.80,10,8,1,23,14,30,0.00,7,,336
2012-10-25,41,36,32,34,29,27,93,80,70,30.33,30.10,29.83,10,8,2,28,21,34,0.04,7,,303
2012-10-26,39,36,33,28,24,21,75,63,52,30.47,30.43,30.38,10,10,10,17,10,20,0.00,8,,275
2012-10-27,44,34,24,34,28,21,93,78,53,30.37,30.29,30.20,10,10,7,16,5,20,0.04,2,,152
2012-10-28,53,42,30,34,31,28,93,69,38,30.25,30.18,30.11,10,10,8,21,10,26,0.00,1,,135
2012-10-29,57,48,39,34,31,28,70,54,38,30.14,30.09,30.06,10,10,10,18,13,23,0.00,2,,133
2012-10-30,53,45,37,32,29,25,81,60,38,30.11,30.06,30.03,10,10,10,13,8,17,0.00,2,,101
2012-10-31,60,45,30,37,31,25,86,62,39,30.06,30.01,29.96,10,10,6,7,3,,0.00,0,,107